createdAt,value
2023-01-25T00:00:15.261Z,6.82
2023-01-25T00:05:18.090Z,7.20
2023-01-25T00:10:17.230Z,7.10
2023-01-25T00:15:16.749Z,6.45
2023-01-25T00:20:14.818Z,6.85
2023-01-25T00:25:13.680Z,6.80
2023-01-25T00:30:12.417Z,6.95
2023-01-25T00:35:15.029Z,6.45
2023-01-25T00:40:14.831Z,6.18
2023-01-25T00:45:15.478Z,6.57
2023-01-25T00:50:17.342Z,6.03
2023-01-25T00:55:17.519Z,5.55
2023-01-25T01:00:17.499Z,5.68
2023-01-25T01:05:18.079Z,6.10
2023-01-25T01:10:19.939Z,5.32
2023-01-25T01:15:22.247Z,5.93
2023-01-25T01:20:20.368Z,5.28
2023-01-25T01:25:20.703Z,5.80
2023-01-25T01:30:19.565Z,5.93
2023-01-25T01:35:20.686Z,6.88
2023-01-25T01:40:22.813Z,7.18
2023-01-25T01:45:43.181Z,7.25
2023-01-25T01:50:48.468Z,8.23
2023-01-25T01:55:48.477Z,6.32
2023-01-25T02:00:48.916Z,6.45
2023-01-25T02:05:58.413Z,6.68
2023-01-25T02:10:59.426Z,6.43
2023-01-25T02:15:59.360Z,6.82
2023-01-25T02:20:58.660Z,7.07
2023-01-25T02:26:00.663Z,7.13
2023-01-25T02:31:02.764Z,7.25
2023-01-25T02:36:30.712Z,6.38
2023-01-25T02:41:36.168Z,6.70
2023-01-25T02:46:37.585Z,6.25
2023-01-25T02:51:40.019Z,6.68
2023-01-25T02:56:41.477Z,6.60
2023-01-25T03:01:46.205Z,6.47
2023-01-25T03:06:46.305Z,7.65
2023-01-25T03:11:48.404Z,7.65
2023-01-25T03:21:52.476Z,8.18
2023-01-25T03:27:12.240Z,8.27
2023-01-25T03:32:30.377Z,8.88
2023-01-25T03:37:36.728Z,9.45
2023-01-25T03:42:36.516Z,9.52
2023-01-25T03:47:35.062Z,9.30
2023-01-25T03:52:44.163Z,10.10
2023-01-25T03:57:49.201Z,10.48
2023-01-25T04:02:53.032Z,9.27
2023-01-25T04:07:55.318Z,8.85
2023-01-25T04:13:02.228Z,7.82
2023-01-25T04:18:00.972Z,8.82
2023-01-25T04:23:01.389Z,7.47
2023-01-25T04:28:12.047Z,8.00
2023-01-25T04:33:22.501Z,7.93
2023-01-25T04:38:23.409Z,12.45
2023-01-25T04:43:27.448Z,8.50
2023-01-25T04:48:30.957Z,8.70
2023-01-25T04:53:43.654Z,7.55
2023-01-25T04:58:44.150Z,8.13
2023-01-25T05:03:44.655Z,8.40
2023-01-25T05:08:53.207Z,10.00
2023-01-25T05:13:54.045Z,9.45
2023-01-25T05:19:01.424Z,9.32
2023-01-25T05:24:12.572Z,10.40
2023-01-25T05:29:11.902Z,10.52
2023-01-25T05:34:22.976Z,9.98
2023-01-25T05:39:24.605Z,11.32
2023-01-25T05:44:28.862Z,10.48
2023-01-25T05:49:27.837Z,12.05
2023-01-25T05:54:26.987Z,12.00
2023-01-25T05:59:32.691Z,11.75
2023-01-25T06:04:32.619Z,11.60
2023-01-25T06:09:31.290Z,13.48
2023-01-25T06:14:33.014Z,12.10
2023-01-25T06:24:53.582Z,10.68
2023-01-25T06:29:52.243Z,12.15
2023-01-25T06:34:51.180Z,12.95
2023-01-25T06:52:44.027Z,13.27
2023-01-25T06:57:50.267Z,13.43
2023-01-25T07:02:51.099Z,13.32
2023-01-25T07:07:50.480Z,13.73
2023-01-25T07:12:52.913Z,11.85
2023-01-25T07:18:15.721Z,12.85
2023-01-25T07:23:15.468Z,14.00
2023-01-25T07:28:15.570Z,13.80
2023-01-25T07:33:16.513Z,13.38
2023-01-25T07:38:18.237Z,14.07
2023-01-25T07:43:17.521Z,12.27
2023-01-25T07:48:17.368Z,20.98
2023-01-25T07:53:17.504Z,15.30
2023-01-25T07:58:17.567Z,12.57
2023-01-25T08:03:16.085Z,13.85
2023-01-25T08:08:15.039Z,14.27
2023-01-25T08:13:20.265Z,13.02
2023-01-25T08:18:18.892Z,14.93
2023-01-25T08:23:22.831Z,15.02
2023-01-25T08:28:22.992Z,11.13
2023-01-25T08:33:23.587Z,12.68
2023-01-25T08:38:24.132Z,12.68
2023-01-25T08:43:22.591Z,12.10
2023-01-25T08:48:21.832Z,11.38
2023-01-25T08:53:20.629Z,13.10
2023-01-25T08:58:21.875Z,11.88
2023-01-25T09:03:20.627Z,14.02
2023-01-25T09:08:20.421Z,11.13
2023-01-25T09:13:19.583Z,11.57
2023-01-25T09:18:18.668Z,10.93
2023-01-25T09:23:17.057Z,10.13
2023-01-25T09:28:15.802Z,11.10
2023-01-25T09:33:14.972Z,12.75
2023-01-25T09:39:08.883Z,10.63
2023-01-25T09:44:24.044Z,10.80
2023-01-25T09:55:33.005Z,10.63
2023-01-25T10:00:36.707Z,9.55
2023-01-25T10:05:55.048Z,11.05
2023-01-25T10:11:10.924Z,10.43
2023-01-25T10:16:25.638Z,9.90
2023-01-25T10:21:30.756Z,10.23
2023-01-25T10:26:37.011Z,10.65
2023-01-25T10:31:46.728Z,10.17
2023-01-25T10:36:48.150Z,11.43
2023-01-25T10:41:52.107Z,11.45
2023-01-25T10:46:59.443Z,10.73
2023-01-25T10:52:13.223Z,11.13
2023-01-25T10:57:17.197Z,9.45
2023-01-25T11:02:38.041Z,8.23
2023-01-25T11:07:36.161Z,9.55
2023-01-25T11:12:38.849Z,8.63
2023-01-25T11:17:37.275Z,9.10
2023-01-25T11:22:36.450Z,10.30
2023-01-25T11:27:34.862Z,9.80
2023-01-25T11:32:36.297Z,9.65
2023-01-25T11:37:45.863Z,8.85
2023-01-25T11:43:12.887Z,9.68
2023-01-25T11:48:50.696Z,9.63
2023-01-25T11:54:17.495Z,9.23
2023-01-25T11:59:34.844Z,7.75
2023-01-25T12:05:21.998Z,8.30
2023-01-25T12:10:22.893Z,8.27
2023-01-25T12:15:44.941Z,7.90
2023-01-25T12:21:01.293Z,6.85
2023-01-25T12:26:10.081Z,7.45
2023-01-25T12:31:22.629Z,8.20
2023-01-25T12:36:41.381Z,8.95
2023-01-25T12:41:53.097Z,7.60
2023-01-25T12:47:15.597Z,6.32
2023-01-25T12:52:28.411Z,7.25
2023-01-25T12:57:51.997Z,6.63
2023-01-25T13:03:14.310Z,7.72
2023-01-25T13:08:30.991Z,6.60
2023-01-25T13:13:33.405Z,5.95
2023-01-25T13:18:32.648Z,7.03
2023-01-25T13:23:35.332Z,6.78
2023-01-25T13:28:43.469Z,6.32
2023-01-25T13:33:43.380Z,7.35
2023-01-25T13:38:41.598Z,7.50
2023-01-25T13:43:42.317Z,6.80
2023-01-25T13:48:54.196Z,6.85
2023-01-25T13:54:00.233Z,6.88
2023-01-25T13:58:59.345Z,7.80
2023-01-25T14:04:02.154Z,7.32
2023-01-25T14:09:08.068Z,9.17
2023-01-25T14:14:26.849Z,8.18
2023-01-25T14:20:02.433Z,7.65
2023-01-25T14:25:16.607Z,7.93
2023-01-25T14:30:26.954Z,7.22
2023-01-25T14:35:42.418Z,8.75
2023-01-25T14:40:52.528Z,8.13
2023-01-25T14:45:55.481Z,8.00
2023-01-25T14:52:00.293Z,8.30
2023-01-25T14:57:48.997Z,8.75
2023-01-25T15:02:59.456Z,8.90
2023-01-25T15:08:09.333Z,9.02
2023-01-25T15:13:14.803Z,6.55
2023-01-25T15:18:53.642Z,8.73
2023-01-25T15:23:59.020Z,8.00
2023-01-25T15:29:02.795Z,8.55
2023-01-25T15:39:01.777Z,9.20
2023-01-25T15:44:01.521Z,8.98
2023-01-25T15:49:00.399Z,9.10
2023-01-25T15:53:59.293Z,8.63
2023-01-25T15:59:01.910Z,7.57
2023-01-25T16:04:00.149Z,19.45
2023-01-25T16:09:01.548Z,8.45
2023-01-25T16:14:05.519Z,8.68
2023-01-25T16:19:04.319Z,7.68
2023-01-25T16:24:05.338Z,9.55
2023-01-25T16:29:05.415Z,9.70
2023-01-25T16:34:06.400Z,6.55
2023-01-25T16:39:26.092Z,8.82
2023-01-25T16:44:26.102Z,8.88
2023-01-25T16:49:30.664Z,7.88
2023-01-25T16:54:30.414Z,10.20
2023-01-25T16:59:28.814Z,9.57
2023-01-25T17:04:29.938Z,9.55
2023-01-25T17:09:30.951Z,8.85
2023-01-25T17:14:28.797Z,10.63
2023-01-25T17:19:29.045Z,10.65
2023-01-25T17:24:32.352Z,9.67
2023-01-25T17:29:32.718Z,9.93
2023-01-25T17:34:33.957Z,10.60
2023-01-25T17:39:44.750Z,10.07
2023-01-25T17:44:45.756Z,10.77
2023-01-25T17:49:48.296Z,11.02
2023-01-25T17:54:47.448Z,9.43
2023-01-25T17:59:51.077Z,9.90
2023-01-25T18:04:48.718Z,10.68
2023-01-25T18:09:49.479Z,8.75
2023-01-25T18:14:50.258Z,8.63
2023-01-25T18:19:54.533Z,10.13
2023-01-25T18:25:02.042Z,9.65
2023-01-25T18:30:25.821Z,8.57
2023-01-25T18:35:26.310Z,8.90
2023-01-25T18:40:30.927Z,9.98
2023-01-25T18:45:30.323Z,9.82
2023-01-25T18:50:30.082Z,10.18
2023-01-25T18:55:31.942Z,9.65
2023-01-25T19:00:32.767Z,10.13
2023-01-25T19:05:37.029Z,8.70
2023-01-25T19:10:48.103Z,11.40
2023-01-25T19:15:48.704Z,11.93
2023-01-25T19:20:48.403Z,10.95
2023-01-25T19:25:56.665Z,12.60
2023-01-25T19:30:58.527Z,8.70
2023-01-25T19:36:01.409Z,10.73
2023-01-25T19:41:12.263Z,10.70
2023-01-25T19:46:46.455Z,9.93
2023-01-25T19:51:55.648Z,10.98
2023-01-25T19:57:00.676Z,12.20
2023-01-25T20:02:00.734Z,9.30
2023-01-25T20:07:05.180Z,8.82
2023-01-25T20:12:10.470Z,10.15
2023-01-25T20:17:09.161Z,10.27
2023-01-25T20:22:10.494Z,9.98
2023-01-25T20:27:11.909Z,9.07
2023-01-25T20:32:20.056Z,10.25
2023-01-25T20:37:48.554Z,9.80
2023-01-25T20:42:51.241Z,9.27
2023-01-25T20:47:50.162Z,10.27
2023-01-25T20:52:48.125Z,10.15
2023-01-25T20:57:53.502Z,9.50
2023-01-25T21:02:52.958Z,11.00
2023-01-25T21:07:51.783Z,11.15
2023-01-25T21:12:56.067Z,13.52
2023-01-25T21:17:55.376Z,11.05
2023-01-25T21:22:56.709Z,11.88
2023-01-25T21:27:57.427Z,11.38
2023-01-25T21:32:58.883Z,12.05
2023-01-25T21:37:57.032Z,11.75
2023-01-25T21:42:55.518Z,12.75
2023-01-25T21:48:00.214Z,12.82
2023-01-25T21:52:59.760Z,10.02
2023-01-25T21:57:58.635Z,11.15
2023-01-25T22:02:58.188Z,11.38
2023-01-25T22:08:01.721Z,11.20
2023-01-25T22:13:13.148Z,11.10
2023-01-25T22:18:15.379Z,11.55
2023-01-25T22:23:16.767Z,13.32
2023-01-25T22:28:16.693Z,12.98
2023-01-25T22:33:22.407Z,13.50
2023-01-25T22:38:23.521Z,15.35
2023-01-25T22:43:24.259Z,12.68
2023-01-25T22:48:25.617Z,14.52
2023-01-25T22:53:38.632Z,13.70
2023-01-25T22:58:42.658Z,14.00
2023-01-25T23:03:45.073Z,13.73
2023-01-25T23:08:44.104Z,13.07
2023-01-25T23:14:03.612Z,13.43
2023-01-25T23:19:04.265Z,13.15
2023-01-25T23:24:05.806Z,14.35
2023-01-25T23:29:09.945Z,14.38
2023-01-25T23:34:07.671Z,15.10
2023-01-25T23:39:12.539Z,14.25
2023-01-25T23:44:14.167Z,15.73
2023-01-25T23:49:20.544Z,16.27
2023-01-25T23:54:32.966Z,14.77
2023-01-25T23:59:34.777Z,16.45
